Flight Track Log - Related Links

Times and Time Zones

All times are in EDT time to prevent confusion due to time zone crossing. See the AAY221 flight status page for this flight to view local times or setup timezone preferences in your user account.

Time Position Orientation Groundspeed Altitude Reporting Facility
EDT Latitude Longitude Course Direction KTS MPH feet Rate Location/Type
Thu 04:54:42 PM 36.0772 -115.1731 267° West 182 209 3,100  Level Los Angeles Center
Thu 04:55:31 PM 36.0750 -115.2325 267° West 220 253 4,200 1,348 Climbing Los Angeles Center
Thu 04:56:11 PM 36.0486 -115.2647 225° Southwest 247 284 5,100 1,770 Climbing Los Angeles Center
Thu 04:56:32 PM 36.0203 -115.2797 203° Southwest 266 306 6,000 2,419 Climbing Los Angeles Center
Thu 04:57:13 PM 35.9753 -115.3003 200° South 270 311 7,600 2,400 Climbing Los Angeles Center
Thu 04:57:27 PM 35.9575 -115.3186 220° Southwest 284 327 8,200 2,226 Climbing Los Angeles Center
Thu 04:58:15 PM 35.9150 -115.3667 222° Southwest 285 328 9,900 2,055 Climbing Los Angeles Center
Thu 04:58:40 PM 35.8908 -115.4094 235° Southwest 300 345 10,700 1,355 Climbing Los Angeles Center
Thu 04:59:17 PM 35.8844 -115.4619 261° West 308 354 11,300 1,111 Climbing Los Angeles Center
Thu 04:59:34 PM 35.8869 -115.5117 274° West 338 389 11,700 1,355 Climbing Los Angeles Center
Thu 05:00:19 PM 35.8892 -115.5956 272° West 360 414 12,700 2,019 Climbing Los Angeles Center
Thu 05:01:21 PM 35.8928 -115.7403 272° West 392 451 15,300 2,323 Climbing Los Angeles Center
Thu 05:02:23 PM 35.8928 -115.8769 270° West 399 459 17,500 1,887 Climbing Los Angeles Center
Thu 05:03:25 PM 35.9314 -116.0111 290° West 409 471 19,200 1,645 Climbing Los Angeles Center
Thu 05:04:27 PM 36.0156 -116.1100 316° Northwest 417 480 20,900 1,536 Climbing Los Angeles Center
Thu 05:05:30 PM 36.1103 -116.2172 318° Northwest 426 490 22,400 1,536 Climbing Los Angeles Center
Thu 05:06:32 PM 36.1950 -116.3119 318° Northwest 430 495 24,100 1,403 Climbing Los Angeles Center
Thu 05:07:34 PM 36.2822 -116.4156 316° Northwest 433 498 25,300 1,355 Climbing Los Angeles Center
Thu 05:08:36 PM 36.3717 -116.5194 317° Northwest 439 505 26,900 1,597 Climbing Los Angeles Center
Thu 05:09:38 PM 36.4586 -116.6206 317° Northwest 435 501 28,600 1,452 Climbing Los Angeles Center
Thu 05:10:40 PM 36.5506 -116.7278 317° Northwest 426 490 29,900 1,161 Climbing Los Angeles Center
Thu 05:11:42 PM 36.6686 -116.8244 327° Northwest 430 495 31,000 919 Climbing Los Angeles Center
Thu 05:12:44 PM 36.7594 -116.8956 328° Northwest 422 486 31,800 385 Climbing Los Angeles Center
Thu 05:14:18 PM 36.9067 -117.0081 329° Northwest 419 482 32,000 96 Climbing Oakland Center
Thu 05:14:49 PM 36.9678 -117.0528 330° Northwest 421 484 32,000  Level Los Angeles Center
Thu 05:15:51 PM 37.0667 -117.1319 327° Northwest 421 484 32,000  Level Los Angeles Center
Thu 05:16:53 PM 37.1686 -117.2078 329° Northwest 424 488 32,000  Level Los Angeles Center
Thu 05:17:55 PM 37.2681 -117.2861 328° Northwest 422 486 32,000  Level Los Angeles Center
Thu 05:18:57 PM 37.3922 -117.3689 332° Northwest 421 484 32,000 48 Level Los Angeles Center
Thu 05:19:59 PM 37.4975 -117.4392 332° Northwest 425 489 32,100  Climbing Los Angeles Center
Thu 05:21:01 PM 37.6047 -117.5075 333° Northwest 428 493 32,000 -48 Descending Los Angeles Center
Thu 05:22:03 PM 37.7086 -117.5767 332° Northwest 421 484 32,000 48 Level Los Angeles Center
Thu 05:23:06 PM 37.8133 -117.6442 333° Northwest 419 482 32,100  Climbing Los Angeles Center
Thu 05:24:08 PM 37.9194 -117.7131 333° Northwest 423 487 32,000 -48 Descending Los Angeles Center
Thu 05:25:10 PM 38.0211 -117.7881 330° Northwest 421 484 32,000  Level Los Angeles Center
Thu 05:26:12 PM 38.1306 -117.9019 321° Northwest 422 486 32,000 48 Level Los Angeles Center
Thu 05:27:14 PM 38.2178 -118.0000 319° Northwest 417 480 32,100 48 Climbing Los Angeles Center
Thu 05:28:16 PM 38.3075 -118.0975 320° Northwest 420 483 32,100 -41 Level Los Angeles Center
Thu 05:29:42 PM 38.4364 -118.2400 319° Northwest 421 484 32,000 -41 Descending Oakland Center
Thu 05:30:44 PM 38.5258 -118.3369 320° Northwest 422 486 32,000  Level Oakland Center
Thu 05:31:46 PM 38.6156 -118.4344 320° Northwest 423 487 32,000 49 Level Oakland Center
Thu 05:32:47 PM 38.7036 -118.5336 319° Northwest 421 484 32,100 49 Climbing Oakland Center
Thu 05:33:49 PM 38.7942 -118.6333 319° Northwest 426 490 32,100  Level Oakland Center
Thu 05:34:51 PM 38.8844 -118.7322 320° Northwest 426 490 32,100 -49 Level Oakland Center
Thu 05:35:52 PM 38.9758 -118.8325 320° Northwest 428 493 32,000 -49 Descending Oakland Center
Thu 05:36:54 PM 39.0653 -118.9344 319° Northwest 427 491 32,000  Level Oakland Center
Thu 05:37:56 PM 39.1753 -119.0583 319° Northwest 432 497 32,000 49 Level Oakland Center
Thu 05:38:57 PM 39.2817 -119.1289 333° Northwest 436 502 32,100  Climbing Oakland Center
Thu 05:39:59 PM 39.3958 -119.1772 342° North 428 493 32,000 -48 Descending Oakland Center
Thu 05:41:01 PM 39.5103 -119.2217 343° North 426 490 32,000 49 Level Oakland Center
Thu 05:42:02 PM 39.6253 -119.2656 344° North 428 493 32,100  Climbing Oakland Center
Thu 05:43:04 PM 39.7408 -119.3108 343° North 431 496 32,000 -48 Descending Oakland Center
Thu 05:44:06 PM 39.8550 -119.3581 342° North 430 495 32,000 48 Level Oakland Center
Thu 05:45:08 PM 39.9692 -119.4039 343° North 430 495 32,100  Climbing Oakland Center
Thu 05:46:09 PM 40.0847 -119.4500 343° North 432 497 32,000  Descending Oakland Center
Thu 05:47:11 PM 40.2008 -119.4969 343° North 436 502 32,100  Climbing Oakland Center
Thu 05:48:13 PM 40.3397 -119.5517 343° North 442 509 32,000  Descending Oakland Center
Thu 05:49:14 PM 40.4542 -119.5972 343° North 433 498 32,100  Climbing Oakland Center
Thu 05:50:16 PM 40.5544 -119.6397 342° North 426 490 32,000  Descending Oakland Center
Thu 05:51:18 PM 40.6683 -119.6886 342° North 431 496 32,100 49 Climbing Oakland Center
Thu 05:52:19 PM 40.8044 -119.7450 343° North 429 494 32,100 -49 Level Oakland Center
Thu 05:53:21 PM 40.9206 -119.7900 344° North 433 498 32,000 -48 Descending Oakland Center
Thu 05:54:23 PM 41.0331 -119.8375 342° North 428 493 32,000  Level Oakland Center
Thu 05:55:24 PM 41.1458 -119.8856 342° North 428 493 32,000 49 Level Oakland Center
Thu 05:56:26 PM 41.2581 -119.9314 343° North 425 489 32,100  Climbing Oakland Center
Thu 05:57:27 PM 41.3717 -119.9761 344° North 426 490 32,000  Descending Oakland Center
Thu 05:58:29 PM 41.4808 -120.0283 340° North 421 484 32,100 48 Climbing Oakland Center
Thu 05:59:31 PM 41.6111 -120.0961 339° North 421 484 32,100 -49 Level Oakland Center
Thu 06:00:32 PM 41.7194 -120.1525 339° North 419 482 32,000 -48 Descending Oakland Center
Thu 06:01:35 PM 41.8314 -120.2061 340° North 421 484 32,000 48 Level Seattle Center
Thu 06:02:36 PM 41.9381 -120.2647 338° Northwest 419 482 32,100  Climbing Seattle Center
Thu 06:03:37 PM 42.0439 -120.3217 338° Northwest 413 475 32,000 -49 Descending Seattle Center
Thu 06:04:38 PM 42.1519 -120.3767 339° North 416 479 32,000  Level Seattle Center
Thu 06:05:39 PM 42.2636 -120.4092 348° North 414 476 32,000 49 Level Seattle Center
Thu 06:06:40 PM 42.3764 -120.4411 348° North 417 480 32,100 49 Climbing Seattle Center
Thu 06:07:41 PM 42.5103 -120.4814 347° North 413 475 32,100 -49 Level Seattle Center
Thu 06:08:42 PM 42.6217 -120.5144 348° North 412 474 32,000 -49 Descending Seattle Center
Thu 06:09:44 PM 42.7333 -120.5503 347° North 414 476 32,000 49 Level Seattle Center
Thu 06:10:45 PM 42.8444 -120.5833 348° North 412 474 32,100 49 Climbing Seattle Center
Thu 06:11:46 PM 42.9553 -120.6194 347° North 411 473 32,100 -49 Level Seattle Center
Thu 06:12:47 PM 43.0653 -120.6514 348° North 408 470 32,000 -49 Descending Seattle Center
Thu 06:13:48 PM 43.1756 -120.6844 348° North 406 467 32,000  Level Seattle Center
Thu 06:14:49 PM 43.2856 -120.7186 347° North 406 467 32,000 49 Level Seattle Center
Thu 06:15:50 PM 43.3953 -120.7519 348° North 404 465 32,100 49 Climbing Seattle Center
Thu 06:16:52 PM 43.5278 -120.7933 347° North 407 468 32,100  Level Seattle Center
Thu 06:17:53 PM 43.6267 -120.8236 348° North 408 470 32,100  Level Seattle Center
Thu 06:18:54 PM 43.7344 -120.8558 348° North 401 461 32,100 -49 Level Seattle Center
Thu 06:19:55 PM 43.8425 -120.8897 347° North 399 459 32,000 -49 Descending Seattle Center
Thu 06:20:56 PM 43.9508 -120.9250 347° North 399 459 32,000 49 Level Seattle Center
Thu 06:21:57 PM 44.0594 -120.9592 347° North 399 459 32,100 49 Climbing Seattle Center
Thu 06:22:58 PM 44.1906 -121.0017 347° North 402 463 32,100  Level Seattle Center
Thu 06:24:00 PM 44.3003 -121.0369 347° North 408 470 32,100 -49 Level Seattle Center
Thu 06:25:01 PM 44.4094 -121.0697 348° North 407 468 32,000 -49 Descending Seattle Center
Thu 06:26:02 PM 44.5153 -121.1056 346° North 399 459 32,000  Level Seattle Center
Thu 06:27:03 PM 44.6231 -121.1411 347° North 398 458 32,000 49 Level Seattle Center
Thu 06:28:04 PM 44.7342 -121.1767 347° North 398 458 32,100 49 Climbing Seattle Center
Thu 06:29:05 PM 44.8411 -121.2111 347° North 396 456 32,100  Level Seattle Center
Thu 06:30:06 PM 44.9486 -121.2472 347° North 395 455 32,100  Level Seattle Center
Thu 06:31:07 PM 45.0550 -121.2808 347° North 393 452 32,100 -49 Level Seattle Center
Thu 06:32:09 PM 45.1614 -121.3178 346° North 393 452 32,000 -49 Descending Seattle Center
Thu 06:33:10 PM 45.2672 -121.3525 347° North 390 449 32,000 49 Level Seattle Center
Thu 06:34:11 PM 45.3722 -121.3861 347° North 388 447 32,100 49 Climbing Seattle Center
Thu 06:35:12 PM 45.4767 -121.4214 347° North 387 445 32,100 -49 Level Seattle Center
Thu 06:36:13 PM 45.6028 -121.4628 347° North 386 444 32,000 -49 Descending Seattle Center
Thu 06:37:14 PM 45.7072 -121.4975 347° North 386 444 32,000 49 Level Seattle Center
Thu 06:38:15 PM 45.8100 -121.5328 347° North 382 440 32,100 49 Climbing Seattle Center
Thu 06:39:17 PM 45.9139 -121.5678 347° North 383 441 32,100  Level Seattle Center
Thu 06:40:18 PM 46.0181 -121.6050 346° North 385 443 32,100  Level Seattle Center
Thu 06:41:19 PM 46.1214 -121.6417 346° North 383 441 32,100  Level Seattle Center
Thu 06:42:20 PM 46.2372 -121.6794 347° North 383 441 32,100 -49 Level Seattle Center
Thu 06:43:21 PM 46.3406 -121.7150 347° North 383 441 32,000  Descending Seattle Center
Thu 06:44:22 PM 46.4444 -121.7494 347° North 383 441 32,100 49 Climbing Seattle Center
Thu 06:45:23 PM 46.5478 -121.7878 346° North 385 443 32,100  Level Seattle Center
Thu 06:46:25 PM 46.6525 -121.8228 347° North 386 444 32,100  Level Seattle Center
Thu 06:47:26 PM 46.7556 -121.8589 347° North 383 441 32,100  Level Seattle Center
Thu 06:48:27 PM 46.8608 -121.8942 347° North 387 445 32,100 -443 Level Seattle Center
Thu 06:49:28 PM 46.9650 -121.9294 347° North 386 444 31,200 -934 Descending Seattle Center
Thu 06:50:29 PM 47.0683 -121.9650 347° North 384 442 30,200 -984 Descending Seattle Center
Thu 06:51:30 PM 47.1750 -122.0006 347° North 391 450 29,200 -1,082 Descending Seattle Center
Thu 06:52:31 PM 47.3000 -122.0428 347° North 386 444 28,000 -1,082 Descending Seattle Center
Thu 06:53:32 PM 47.4053 -122.0778 347° North 389 448 27,000 -1,415 Descending Seattle Center
Thu 06:54:34 PM 47.5081 -122.1122 347° North 386 444 25,100 -2,146 Descending Seattle Center
Thu 06:55:35 PM 47.6111 -122.1469 347° North 385 443 22,600 -2,410 Descending Seattle Center
Thu 06:56:36 PM 47.7119 -122.1814 347° North 380 437 20,200 -1,475 Descending Seattle Center
Thu 06:57:37 PM 47.8083 -122.2144 347° North 365 420 19,600 -1,082 Descending Seattle Center
Thu 06:58:38 PM 47.9203 -122.2539 347° North 351 404 18,000 -1,377 Descending Seattle Center
Thu 06:59:39 PM 48.0136 -122.2861 347° North 346 398 16,800 -1,340 Descending Seattle Center
Thu 07:00:12 PM 48.0622 -122.3044 346° North 341 392 15,900 -1,672 Descending Seattle Center
Thu 07:00:40 PM 48.1053 -122.3169 349° North 338 389 15,100 -1,701 Descending Seattle Center
Thu 07:01:19 PM 48.1583 -122.3389 345° North 335 386 14,000 -1,065 Descending Seattle Center
Thu 07:01:42 PM 48.1944 -122.3489 350° North 333 383 14,000 -1,636 Level Seattle Center
Thu 07:02:25 PM 48.2628 -122.3717 347° North 332 382 12,200 -2,361 Descending Seattle Center
Thu 07:02:43 PM 48.2850 -122.3806 345° North 336 387 11,600 -2,164 Descending Seattle Center
Thu 07:03:26 PM 48.3536 -122.4025 348° North 341 392 10,000 -1,574 Descending Seattle Center
Thu 07:03:44 PM 48.3758 -122.4106 346° North 336 387 10,000 -492 Level Seattle Center
Thu 07:04:27 PM 48.4314 -122.4278 348° North 277 319 9,500 -787 Descending Seattle Center
Thu 07:04:45 PM 48.4514 -122.4319 352° North 275 316 9,200 -1,667 Descending Seattle Center
Thu 07:05:21 PM 48.5039 -122.4492 348° North 261 300 8,000 -1,574 Descending Seattle Center
Thu 07:05:46 PM 48.5250 -122.4564 347° North 271 312 7,600 -1,522 Descending Seattle Center
Thu 07:06:28 PM 48.5803 -122.4856 341° North 266 306 6,300 -1,475 Descending Seattle Center
Thu 07:06:47 PM 48.5944 -122.4908 346° North 265 305 6,100 -1,275 Descending Seattle Center
Thu 07:07:48 PM 48.6622 -122.5233 342° North 261 300 4,600 -1,561 Descending Seattle Center
Thu 07:08:50 PM 48.7383 -122.5767 335° Northwest 255 293 2,900 -1,122 Descending Seattle Center
Thu 07:09:51 PM 48.7989 -122.6014 345° North 239 275 2,300 -709 Descending Seattle Center
Thu 07:10:40 PM 48.8167 -122.6000 North 190 219 1,600 -550 Descending Vancouver Center
Thu 07:11:40 PM 48.8500 -122.5333 53° Northeast 160 184 1,300 -500 Descending Vancouver Center
Thu 07:12:40 PM 48.8000 -122.5333 180° South 150 173 600 -700 Descending Vancouver Center

Login

Don't have an account? Register now (free) for customized features, flight alerts, and more!